createdAt,value
2023-02-16T00:00:21.600Z,16.53
2023-02-16T00:03:26.277Z,16.51
2023-02-16T00:09:29.953Z,16.48
2023-02-16T00:12:44.160Z,16.45
2023-02-16T00:15:38.213Z,16.43
2023-02-16T00:18:31.940Z,16.43
2023-02-16T00:21:26.138Z,16.40
2023-02-16T00:24:02.572Z,16.40
2023-02-16T00:26:56.800Z,16.39
2023-02-16T00:29:50.692Z,16.37
2023-02-16T00:32:45.000Z,16.37
2023-02-16T00:35:38.678Z,16.36
2023-02-16T00:38:32.379Z,16.36
2023-02-16T00:41:44.671Z,16.35
2023-02-16T00:44:44.629Z,16.35
2023-02-16T00:47:41.757Z,16.34
2023-02-16T00:50:36.974Z,16.32
2023-02-16T00:53:30.614Z,16.31
2023-02-16T00:56:24.898Z,16.32
2023-02-16T00:59:23.654Z,16.29
2023-02-16T01:02:17.601Z,16.28
2023-02-16T01:05:12.219Z,16.28
2023-02-16T01:08:28.305Z,16.29
2023-02-16T01:11:24.051Z,16.27
2023-02-16T01:14:17.673Z,16.26
2023-02-16T01:17:12.888Z,16.24
2023-02-16T01:20:12.520Z,16.24
2023-02-16T01:23:06.639Z,16.22
2023-02-16T01:26:00.500Z,16.21
2023-02-16T01:28:54.208Z,16.20
2023-02-16T01:31:48.290Z,16.18
2023-02-16T01:34:42.291Z,16.15
2023-02-16T01:37:27.572Z,16.14
2023-02-16T01:40:36.907Z,16.16
2023-02-16T01:43:38.549Z,16.14
2023-02-16T01:46:45.042Z,16.12
2023-02-16T01:49:38.801Z,16.10
2023-02-16T01:52:38.737Z,16.10
2023-02-16T01:55:38.285Z,16.11
2023-02-16T01:58:41.822Z,16.09
2023-02-16T02:01:45.137Z,16.08
2023-02-16T02:05:02.750Z,16.08
2023-02-16T02:08:01.564Z,16.05
2023-02-16T02:11:10.834Z,16.05
2023-02-16T02:14:10.431Z,16.04
2023-02-16T02:17:09.554Z,16.04
2023-02-16T02:20:14.353Z,16.03
2023-02-16T02:24:03.366Z,16.03
2023-02-16T02:27:06.589Z,16.03
2023-02-16T02:30:48.122Z,16.01
2023-02-16T02:34:00.850Z,16.00
2023-02-16T02:37:11.714Z,16.00
2023-02-16T02:40:21.226Z,15.98
2023-02-16T02:43:21.773Z,15.97
2023-02-16T02:46:24.644Z,15.97
2023-02-16T02:49:18.549Z,15.97
2023-02-16T02:52:12.302Z,15.96
2023-02-16T02:55:24.213Z,15.94
2023-02-16T02:58:37.624Z,15.92
2023-02-16T03:01:32.651Z,15.91
2023-02-16T03:04:32.243Z,15.91
2023-02-16T03:07:46.611Z,15.89
2023-02-16T03:11:00.247Z,15.89
2023-02-16T03:13:58.417Z,15.87
2023-02-16T03:17:12.163Z,15.86
2023-02-16T03:20:29.840Z,15.85
2023-02-16T03:23:37.761Z,15.84
2023-02-16T03:26:50.303Z,15.84
2023-02-16T03:29:45.928Z,15.84
2023-02-16T03:32:40.926Z,15.81
2023-02-16T03:35:35.553Z,15.82
2023-02-16T03:38:30.039Z,15.82
2023-02-16T03:41:23.846Z,15.82
2023-02-16T03:44:17.659Z,15.81
2023-02-16T03:47:12.002Z,15.81
2023-02-16T03:50:06.254Z,15.80
2023-02-16T03:53:07.776Z,15.79
2023-02-16T03:56:01.576Z,15.78
2023-02-16T03:58:55.290Z,15.79
2023-02-16T04:01:49.032Z,15.77
2023-02-16T04:04:25.323Z,15.78
2023-02-16T04:07:19.003Z,15.78
2023-02-16T04:10:13.326Z,15.78
2023-02-16T04:13:07.365Z,15.77
2023-02-16T04:16:00.892Z,15.77
2023-02-16T04:18:54.878Z,15.77
2023-02-16T04:21:48.619Z,15.75
2023-02-16T04:24:42.379Z,15.74
2023-02-16T04:27:36.574Z,15.72
2023-02-16T04:30:32.418Z,15.72
2023-02-16T04:33:26.297Z,15.71
2023-02-16T04:36:20.166Z,15.68
2023-02-16T04:39:13.857Z,15.68
2023-02-16T04:42:08.029Z,15.69
2023-02-16T04:44:51.782Z,15.66
2023-02-16T04:47:45.528Z,15.66
2023-02-16T04:50:39.209Z,15.64
2023-02-16T04:53:32.991Z,15.63
2023-02-16T04:56:28.199Z,15.64
2023-02-16T04:59:21.936Z,15.64
2023-02-16T05:02:15.613Z,15.63
2023-02-16T05:05:10.653Z,15.62
2023-02-16T05:08:04.627Z,15.62
2023-02-16T05:11:15.836Z,15.61
2023-02-16T05:14:35.833Z,15.63
2023-02-16T05:17:27.020Z,15.59
2023-02-16T05:20:40.864Z,15.59
2023-02-16T05:23:34.665Z,15.58
2023-02-16T05:26:29.130Z,15.57
2023-02-16T05:29:23.080Z,15.64
2023-02-16T05:32:17.510Z,15.60
2023-02-16T05:35:11.788Z,15.57
2023-02-16T05:38:05.425Z,15.55
2023-02-16T05:40:43.971Z,15.54
2023-02-16T05:43:38.183Z,15.55
2023-02-16T05:46:34.960Z,15.56
2023-02-16T05:49:28.820Z,15.53
2023-02-16T05:52:22.444Z,15.50
2023-02-16T05:55:16.350Z,15.51
2023-02-16T05:58:10.186Z,15.48
2023-02-16T06:01:04.441Z,15.48
2023-02-16T06:03:58.383Z,15.45
2023-02-16T06:06:52.224Z,15.51
2023-02-16T06:09:46.039Z,15.50
2023-02-16T06:12:39.973Z,15.48
2023-02-16T06:15:34.174Z,15.46
2023-02-16T06:18:28.870Z,15.44
2023-02-16T06:21:22.631Z,15.44
2023-02-16T06:24:17.138Z,15.45
2023-02-16T06:27:10.840Z,15.45
2023-02-16T06:30:04.950Z,15.45
2023-02-16T06:32:58.893Z,15.45
2023-02-16T06:35:52.657Z,15.42
2023-02-16T06:38:46.632Z,15.40
2023-02-16T06:41:40.999Z,15.38
2023-02-16T06:44:19.043Z,15.39
2023-02-16T06:47:12.801Z,15.37
2023-02-16T06:50:09.777Z,15.37
2023-02-16T06:53:03.482Z,15.39
2023-02-16T06:55:37.435Z,15.38
2023-02-16T06:58:31.208Z,15.37
2023-02-16T07:01:26.165Z,15.38
2023-02-16T07:04:19.959Z,15.39
2023-02-16T07:07:13.704Z,15.38
2023-02-16T07:10:09.403Z,15.37
2023-02-16T07:13:03.153Z,15.36
2023-02-16T07:15:57.010Z,15.35
2023-02-16T07:18:51.383Z,15.36
2023-02-16T07:21:45.146Z,15.37
2023-02-16T07:24:38.776Z,15.39
2023-02-16T07:27:32.689Z,15.40
2023-02-16T07:30:26.982Z,15.39
2023-02-16T07:33:21.168Z,15.38
2023-02-16T07:36:16.428Z,15.42
2023-02-16T07:39:10.109Z,15.44
2023-02-16T07:42:05.422Z,15.47
2023-02-16T07:44:59.188Z,15.49
2023-02-16T07:47:52.846Z,15.56
2023-02-16T07:50:46.578Z,15.59
2023-02-16T07:53:40.383Z,15.97
2023-02-16T07:56:36.046Z,17.12
2023-02-16T07:59:20.732Z,17.02
2023-02-16T08:02:21.169Z,17.39
2023-02-16T08:05:15.660Z,16.74
2023-02-16T08:08:09.734Z,16.22
2023-02-16T08:11:08.649Z,15.85
2023-02-16T08:14:02.785Z,15.88
2023-02-16T08:16:56.849Z,15.95
2023-02-16T08:19:50.673Z,15.91
2023-02-16T08:22:47.053Z,15.89
2023-02-16T08:25:40.787Z,15.90
2023-02-16T08:28:37.894Z,14.97
2023-02-16T08:31:35.276Z,15.94
2023-02-16T08:34:31.369Z,16.28
2023-02-16T08:37:25.226Z,16.34
2023-02-16T08:40:24.266Z,16.40
2023-02-16T08:43:18.212Z,16.43
2023-02-16T08:46:12.184Z,16.47
2023-02-16T08:49:06.512Z,16.51
2023-02-16T08:52:01.890Z,16.54
2023-02-16T08:54:56.082Z,16.61
2023-02-16T08:57:49.708Z,16.58
2023-02-16T09:00:43.682Z,16.64
2023-02-16T09:03:38.484Z,16.68
2023-02-16T09:06:33.046Z,16.70
2023-02-16T09:09:18.952Z,16.71
2023-02-16T09:12:02.950Z,16.70
2023-02-16T09:14:57.778Z,16.71
2023-02-16T09:17:51.501Z,16.71
2023-02-16T09:20:47.258Z,16.72
2023-02-16T09:23:43.478Z,16.73
2023-02-16T09:26:42.810Z,16.35
2023-02-16T09:29:38.607Z,16.04
2023-02-16T09:32:33.631Z,16.08
2023-02-16T09:35:27.572Z,16.20
2023-02-16T09:38:21.402Z,16.11
2023-02-16T09:41:29.167Z,16.04
2023-02-16T09:44:31.132Z,16.09
2023-02-16T09:47:31.060Z,16.12
2023-02-16T09:50:52.272Z,16.14
2023-02-16T09:53:45.090Z,16.11
2023-02-16T09:56:46.595Z,16.18
2023-02-16T09:59:53.924Z,16.14
2023-02-16T10:02:54.693Z,15.78
2023-02-16T10:05:54.985Z,15.37
2023-02-16T10:08:53.193Z,15.21
2023-02-16T10:11:54.541Z,14.32
2023-02-16T10:14:51.047Z,15.34
2023-02-16T10:17:49.996Z,15.74
2023-02-16T10:20:49.153Z,15.76
2023-02-16T10:23:50.374Z,16.51
2023-02-16T10:26:51.966Z,15.79
2023-02-16T10:29:45.742Z,14.04
2023-02-16T10:32:49.606Z,13.80
2023-02-16T10:35:49.172Z,13.44
2023-02-16T10:38:49.009Z,13.42
2023-02-16T10:41:51.936Z,13.26
2023-02-16T10:44:51.390Z,12.88
2023-02-16T10:47:38.888Z,12.77
2023-02-16T10:50:37.938Z,12.76
2023-02-16T10:53:47.623Z,12.59
2023-02-16T10:56:53.990Z,12.85
2023-02-16T10:59:48.879Z,12.73
2023-02-16T11:02:31.603Z,12.76
2023-02-16T11:05:41.238Z,12.83
2023-02-16T11:08:50.024Z,13.79
2023-02-16T11:11:45.997Z,15.25
2023-02-16T11:14:41.160Z,15.62
2023-02-16T11:17:59.884Z,15.78
2023-02-16T11:20:58.539Z,15.92
2023-02-16T11:24:02.804Z,16.05
2023-02-16T11:27:15.709Z,16.15
2023-02-16T11:30:30.020Z,16.18
2023-02-16T11:33:27.935Z,16.23
2023-02-16T11:36:32.506Z,16.27
2023-02-16T11:39:35.112Z,16.21
2023-02-16T11:42:29.922Z,15.93
2023-02-16T11:45:33.073Z,15.86
2023-02-16T11:48:32.826Z,15.85
2023-02-16T11:51:15.263Z,15.86
2023-02-16T11:54:19.153Z,15.93
2023-02-16T11:57:17.558Z,15.79
2023-02-16T12:00:23.752Z,15.79
2023-02-16T12:03:47.653Z,15.86
2023-02-16T12:07:06.237Z,15.86
2023-02-16T12:10:08.747Z,15.86
2023-02-16T12:13:12.337Z,15.83
2023-02-16T12:16:32.114Z,15.81
2023-02-16T12:19:43.329Z,15.83
2023-02-16T12:22:47.071Z,15.89
2023-02-16T12:25:51.374Z,15.89
2023-02-16T12:28:56.106Z,15.83
2023-02-16T12:32:14.471Z,15.80
2023-02-16T12:35:33.070Z,15.80
2023-02-16T12:38:43.940Z,15.81
2023-02-16T12:41:40.080Z,15.79
2023-02-16T12:44:42.576Z,15.77
2023-02-16T12:47:42.929Z,15.96
2023-02-16T12:50:42.009Z,15.88
2023-02-16T12:53:46.335Z,15.89
2023-02-16T12:56:44.625Z,15.85
2023-02-16T12:59:47.044Z,15.86
2023-02-16T13:02:47.249Z,15.90
2023-02-16T13:05:42.703Z,15.88
2023-02-16T13:08:45.321Z,15.81
2023-02-16T13:11:44.746Z,15.85
2023-02-16T13:14:43.318Z,15.86
2023-02-16T13:17:57.084Z,15.85
2023-02-16T13:20:55.006Z,15.83
2023-02-16T13:24:03.265Z,15.89
2023-02-16T13:27:18.146Z,15.79
2023-02-16T13:31:17.106Z,15.73
2023-02-16T13:34:31.120Z,15.85
2023-02-16T13:37:41.759Z,15.87
2023-02-16T13:41:04.481Z,15.76
2023-02-16T13:44:02.886Z,15.78
2023-02-16T13:46:57.446Z,15.79
2023-02-16T13:49:56.812Z,15.79
2023-02-16T13:52:52.534Z,15.76
2023-02-16T13:55:46.850Z,15.74
2023-02-16T13:58:41.582Z,15.74
2023-02-16T14:01:47.291Z,15.73
2023-02-16T14:05:10.743Z,15.70
2023-02-16T14:08:28.666Z,15.70
2023-02-16T14:11:23.186Z,15.66
2023-02-16T14:14:33.429Z,15.62
2023-02-16T14:17:33.045Z,15.76
2023-02-16T14:20:32.487Z,15.73
2023-02-16T14:23:34.626Z,15.73
2023-02-16T14:26:29.035Z,15.74
2023-02-16T14:29:25.161Z,15.74
2023-02-16T14:32:29.393Z,15.74
2023-02-16T14:35:28.818Z,15.60
2023-02-16T14:38:26.860Z,15.64
2023-02-16T14:41:33.296Z,15.65
2023-02-16T14:44:53.773Z,15.66
2023-02-16T14:47:59.998Z,15.65
2023-02-16T14:51:35.816Z,15.64
2023-02-16T14:55:07.200Z,15.64
2023-02-16T14:58:07.361Z,15.70
2023-02-16T15:01:09.301Z,15.70
2023-02-16T15:04:03.159Z,15.69
2023-02-16T15:06:58.387Z,15.71
2023-02-16T15:09:57.174Z,15.73
2023-02-16T15:12:51.076Z,15.72
2023-02-16T15:15:51.353Z,15.71
2023-02-16T15:18:52.674Z,15.71
2023-02-16T15:21:46.872Z,15.71
2023-02-16T15:24:42.277Z,15.73
2023-02-16T15:27:36.058Z,15.67
2023-02-16T15:30:31.914Z,15.67
2023-02-16T15:33:37.210Z,15.66
2023-02-16T15:36:38.817Z,15.70
2023-02-16T15:39:38.504Z,15.73
2023-02-16T15:42:41.480Z,14.26
2023-02-16T15:45:38.802Z,13.17
2023-02-16T15:48:35.048Z,14.46
2023-02-16T15:51:32.853Z,15.09
2023-02-16T15:54:30.742Z,15.44
2023-02-16T15:57:31.361Z,15.45
2023-02-16T16:00:27.357Z,15.54
2023-02-16T16:03:22.610Z,15.60
2023-02-16T16:06:16.489Z,15.67
2023-02-16T16:09:18.772Z,15.72
2023-02-16T16:12:18.603Z,15.77
2023-02-16T16:15:22.782Z,15.78
2023-02-16T16:18:51.469Z,15.80
2023-02-16T16:21:55.634Z,15.79
2023-02-16T16:24:48.622Z,15.86
2023-02-16T16:27:50.104Z,15.88
2023-02-16T16:30:45.294Z,15.98
2023-02-16T16:33:57.837Z,15.99
2023-02-16T16:36:59.439Z,15.95
2023-02-16T16:40:06.580Z,15.95
2023-02-16T16:43:20.820Z,15.97
2023-02-16T16:46:24.662Z,16.07
2023-02-16T16:49:19.088Z,16.15
2023-02-16T16:52:14.659Z,16.18
2023-02-16T16:55:24.785Z,16.23
2023-02-16T16:58:18.719Z,16.27
2023-02-16T17:01:13.583Z,16.26
2023-02-16T17:04:07.549Z,16.30
2023-02-16T17:07:01.392Z,16.26
2023-02-16T17:09:56.005Z,16.30
2023-02-16T17:12:52.441Z,16.32
2023-02-16T17:15:52.958Z,16.31
2023-02-16T17:18:46.903Z,16.29
2023-02-16T17:21:23.893Z,16.38
2023-02-16T17:24:18.295Z,16.38
2023-02-16T17:27:13.377Z,16.34
2023-02-16T17:30:08.473Z,16.36
2023-02-16T17:33:02.840Z,16.37
2023-02-16T17:35:56.610Z,16.38
2023-02-16T17:38:50.821Z,16.40
2023-02-16T17:41:44.739Z,16.45
2023-02-16T17:44:39.400Z,16.48
2023-02-16T17:47:33.954Z,16.50
2023-02-16T17:50:30.337Z,16.51
2023-02-16T17:53:27.695Z,16.55
2023-02-16T17:56:24.562Z,16.57
2023-02-16T17:58:58.278Z,16.60
2023-02-16T18:01:52.009Z,16.63
2023-02-16T18:04:45.922Z,16.64
2023-02-16T18:07:28.892Z,16.68
2023-02-16T18:10:44.900Z,16.71
2023-02-16T18:13:39.045Z,16.72
2023-02-16T18:16:33.091Z,16.75
2023-02-16T18:19:27.071Z,16.78
2023-02-16T18:22:20.950Z,16.82
2023-02-16T18:25:14.756Z,16.86
2023-02-16T18:28:08.831Z,16.88
2023-02-16T18:31:03.452Z,15.77
2023-02-16T18:33:57.592Z,16.63
2023-02-16T18:36:51.574Z,16.85
2023-02-16T18:39:45.739Z,16.92
2023-02-16T18:42:40.232Z,17.00
2023-02-16T18:45:34.623Z,17.10
2023-02-16T18:48:28.699Z,17.09
2023-02-16T18:51:26.079Z,17.06
2023-02-16T18:54:20.216Z,17.12
2023-02-16T18:57:14.208Z,17.16
2023-02-16T19:00:12.012Z,17.21
2023-02-16T19:03:04.250Z,17.26
2023-02-16T19:05:58.242Z,17.20
2023-02-16T19:08:52.410Z,17.29
2023-02-16T19:11:46.476Z,17.21
2023-02-16T19:14:40.701Z,17.22
2023-02-16T19:17:34.968Z,17.21
2023-02-16T19:20:29.661Z,17.21
2023-02-16T19:23:24.034Z,17.21
2023-02-16T19:26:19.422Z,17.22
2023-02-16T19:29:14.025Z,17.29
2023-02-16T19:32:08.464Z,17.30
2023-02-16T19:35:02.365Z,17.29
2023-02-16T19:37:56.312Z,17.31
2023-02-16T19:40:50.030Z,17.30
2023-02-16T19:43:45.164Z,17.32
2023-02-16T19:46:39.001Z,17.34
2023-02-16T19:49:34.591Z,17.36
2023-02-16T19:52:30.947Z,17.35
2023-02-16T19:55:25.843Z,17.37
2023-02-16T19:58:20.487Z,17.39
2023-02-16T20:01:17.623Z,17.39
2023-02-16T20:04:13.079Z,17.50
2023-02-16T20:07:08.766Z,17.46
2023-02-16T20:10:03.949Z,17.44
2023-02-16T20:12:59.853Z,17.37
2023-02-16T20:15:53.802Z,17.35
2023-02-16T20:18:48.276Z,17.39
2023-02-16T20:21:44.234Z,17.45
2023-02-16T20:24:38.825Z,17.47
2023-02-16T20:27:29.305Z,17.46
2023-02-16T20:30:26.658Z,17.39
2023-02-16T20:33:10.656Z,17.45
2023-02-16T20:36:05.348Z,17.50
2023-02-16T20:38:59.675Z,17.54
2023-02-16T20:41:53.546Z,17.55
2023-02-16T20:44:47.493Z,17.54
2023-02-16T20:47:41.510Z,17.63
2023-02-16T20:50:35.908Z,17.49
2023-02-16T20:53:30.451Z,17.44
2023-02-16T20:56:26.529Z,17.41
2023-02-16T20:59:20.545Z,17.42
2023-02-16T21:02:15.242Z,17.46
2023-02-16T21:05:11.315Z,17.44
2023-02-16T21:08:05.344Z,17.39
2023-02-16T21:10:59.219Z,17.38
2023-02-16T21:13:53.219Z,17.38
2023-02-16T21:16:47.019Z,17.41
2023-02-16T21:19:41.141Z,17.38
2023-02-16T21:22:35.025Z,17.35
2023-02-16T21:25:28.774Z,17.34
2023-02-16T21:28:22.444Z,17.34
2023-02-16T21:31:18.980Z,17.34
2023-02-16T21:34:15.177Z,17.36
2023-02-16T21:37:08.995Z,17.33
2023-02-16T21:40:20.622Z,17.34
2023-02-16T21:43:17.234Z,17.36
2023-02-16T21:46:13.461Z,17.36
2023-02-16T21:49:08.487Z,17.33
2023-02-16T21:52:02.234Z,17.31
2023-02-16T21:55:13.843Z,17.32
2023-02-16T21:58:08.212Z,17.32
2023-02-16T22:01:02.001Z,17.35
2023-02-16T22:03:58.675Z,17.31
2023-02-16T22:06:54.687Z,17.35
2023-02-16T22:09:48.715Z,17.34
2023-02-16T22:12:42.575Z,17.34
2023-02-16T22:15:38.127Z,17.32
2023-02-16T22:18:31.836Z,17.34
2023-02-16T22:21:25.581Z,17.38
2023-02-16T22:24:20.944Z,17.38
2023-02-16T22:27:14.595Z,17.35
2023-02-16T22:30:12.262Z,17.35
2023-02-16T22:33:04.789Z,17.34
2023-02-16T22:35:58.945Z,17.35
2023-02-16T22:38:52.731Z,17.35
2023-02-16T22:41:46.600Z,17.36
2023-02-16T22:44:40.641Z,17.34
2023-02-16T22:47:34.708Z,17.36
2023-02-16T22:50:28.584Z,17.37
2023-02-16T22:53:22.268Z,17.37
2023-02-16T22:56:18.763Z,17.35
2023-02-16T22:59:13.963Z,17.36
2023-02-16T23:02:07.809Z,17.38
2023-02-16T23:05:01.560Z,17.36
2023-02-16T23:07:55.222Z,17.34
2023-02-16T23:11:00.855Z,17.34
2023-02-16T23:13:54.547Z,17.31
2023-02-16T23:16:50.939Z,17.31
2023-02-16T23:19:44.956Z,17.35
2023-02-16T23:22:39.775Z,17.34
2023-02-16T23:25:36.213Z,17.36
2023-02-16T23:28:29.960Z,17.36
2023-02-16T23:31:24.649Z,17.32
2023-02-16T23:34:19.720Z,17.32
2023-02-16T23:37:13.492Z,17.33
2023-02-16T23:40:08.945Z,17.29
2023-02-16T23:43:02.599Z,17.33
2023-02-16T23:45:57.617Z,17.34
2023-02-16T23:48:51.441Z,17.35
2023-02-16T23:51:45.244Z,17.44
2023-02-16T23:54:38.955Z,17.57
2023-02-16T23:57:32.760Z,17.45
